< < Back
Terminal Aerodrome Forecast


Current Version              Previous Versions:   1  2  3  4  5  6  7  8  9  

Terminal Aerodrome Forecast

149
FTUS44 KBMX 301700
TAFANB
TAF
KANB 301722Z 3018/3118 03006KT P6SM SCT050=



Latest METAR

740
SAUS70 KWBC 301700 RRC
MTRANB
METAR KANB 301653Z AUTO VRB04KT 10SM CLR 26/12 A3007 RMK AO2 SLP176
T02560117


USA.gov is the U.S. government's official web portal to all federal, state and local government web resources and services.